createdAt,value
2023-03-22T00:00:15.210Z,100254.31
2023-03-22T00:02:41.999Z,100259.12
2023-03-22T00:05:09.608Z,100253.69
2023-03-22T00:07:37.749Z,100250.31
2023-03-22T00:10:05.580Z,100250.16
2023-03-22T00:12:32.141Z,100244.16
2023-03-22T00:15:00.169Z,100252.62
2023-03-22T00:17:26.873Z,100249.28
2023-03-22T00:19:54.633Z,100247.50
2023-03-22T00:22:21.866Z,100248.34
2023-03-22T00:24:48.514Z,100241.84
2023-03-22T00:27:15.862Z,100242.03
2023-03-22T00:29:42.766Z,100242.31
2023-03-22T00:32:09.397Z,100233.50
2023-03-22T00:34:36.238Z,100244.19
2023-03-22T00:37:02.839Z,100239.69
2023-03-22T00:39:29.490Z,100241.25
2023-03-22T00:41:56.270Z,100241.63
2023-03-22T00:44:22.886Z,100234.56
2023-03-22T00:46:49.491Z,100238.94
2023-03-22T00:49:16.138Z,100233.94
2023-03-22T00:51:42.707Z,100233.31
2023-03-22T00:54:09.474Z,100231.41
2023-03-22T00:56:37.633Z,100240.41
2023-03-22T00:59:04.768Z,100228.19
2023-03-22T01:01:31.644Z,100235.25
2023-03-22T01:03:58.351Z,100240.41
2023-03-22T01:06:25.224Z,100232.34
2023-03-22T01:08:55.082Z,100237.66
2023-03-22T01:11:21.683Z,100238.62
2023-03-22T01:13:48.322Z,100240.72
2023-03-22T01:16:15.716Z,100246.50
2023-03-22T01:18:42.417Z,100240.56
2023-03-22T01:21:09.762Z,100248.25
2023-03-22T01:23:36.862Z,100242.62
2023-03-22T01:26:04.656Z,100236.53
2023-03-22T01:28:31.414Z,100242.25
2023-03-22T01:31:02.621Z,100232.44
2023-03-22T01:33:30.947Z,100234.69
2023-03-22T01:35:57.613Z,100235.16
2023-03-22T01:38:24.223Z,100227.56
2023-03-22T01:40:51.066Z,100229.97
2023-03-22T01:43:18.003Z,100224.50
2023-03-22T01:45:48.313Z,100220.31
2023-03-22T01:48:37.668Z,100228.00
2023-03-22T01:51:07.230Z,100223.72
2023-03-22T01:53:39.335Z,100226.81
2023-03-22T01:56:06.395Z,100224.72
2023-03-22T01:58:36.426Z,100224.88
2023-03-22T02:01:04.060Z,100232.34
2023-03-22T02:03:41.901Z,100217.22
2023-03-22T02:06:08.694Z,100208.66
2023-03-22T02:08:35.311Z,100207.16
2023-03-22T02:11:03.734Z,100206.91
2023-03-22T02:13:48.023Z,100214.03
2023-03-22T02:16:32.986Z,100222.22
2023-03-22T02:19:31.918Z,100237.34
2023-03-22T02:22:14.533Z,100247.00
2023-03-22T02:25:15.428Z,100240.31
2023-03-22T02:27:53.196Z,100247.88
2023-03-22T02:30:56.788Z,100244.06
2023-03-22T02:34:06.061Z,100232.44
2023-03-22T02:36:42.678Z,100229.72
2023-03-22T02:39:15.492Z,100230.31
2023-03-22T02:42:08.239Z,100231.38
2023-03-22T02:44:42.132Z,100236.81
2023-03-22T02:47:20.586Z,100236.38
2023-03-22T02:49:56.290Z,100245.78
2023-03-22T02:52:46.541Z,100247.25
2023-03-22T02:55:34.832Z,100253.66
2023-03-22T02:58:06.828Z,100251.09
2023-03-22T03:00:35.824Z,100251.56
2023-03-22T03:03:11.493Z,100252.16
2023-03-22T03:05:46.778Z,100250.03
2023-03-22T03:08:15.937Z,100257.94
2023-03-22T03:10:44.064Z,100260.53
2023-03-22T03:13:17.928Z,100251.19
2023-03-22T03:15:48.773Z,100257.56
2023-03-22T03:18:24.561Z,100252.25
2023-03-22T03:20:54.499Z,100254.22
2023-03-22T03:23:24.483Z,100254.06
2023-03-22T03:26:28.688Z,100253.41
2023-03-22T03:29:31.056Z,100256.81
2023-03-22T03:32:03.312Z,100263.06
2023-03-22T03:34:36.227Z,100249.75
2023-03-22T03:37:19.927Z,100253.78
2023-03-22T03:40:10.825Z,100251.75
2023-03-22T03:42:41.953Z,100249.69
2023-03-22T03:45:09.623Z,100245.50
2023-03-22T03:47:37.005Z,100246.50
2023-03-22T03:50:06.352Z,100243.91
2023-03-22T03:52:32.957Z,100244.25
2023-03-22T03:54:59.930Z,100250.19
2023-03-22T03:57:26.486Z,100252.59
2023-03-22T03:59:53.028Z,100254.72
2023-03-22T04:02:19.693Z,100248.59
2023-03-22T04:04:46.632Z,100262.41
2023-03-22T04:07:13.358Z,100259.81
2023-03-22T04:09:41.260Z,100259.66
2023-03-22T04:12:09.794Z,100261.59
2023-03-22T04:14:36.376Z,100264.97
2023-03-22T04:17:03.491Z,100275.88
2023-03-22T04:19:31.229Z,100276.03
2023-03-22T04:21:58.006Z,100271.25
2023-03-22T04:24:24.568Z,100276.22
2023-03-22T04:26:52.438Z,100269.97
2023-03-22T04:29:19.139Z,100269.00
2023-03-22T04:31:45.800Z,100268.38
2023-03-22T04:34:12.358Z,100259.84
2023-03-22T04:36:41.907Z,100258.56
2023-03-22T04:39:11.474Z,100264.31
2023-03-22T04:41:38.276Z,100254.97
2023-03-22T04:44:06.622Z,100260.87
2023-03-22T04:46:35.970Z,100260.25
2023-03-22T04:49:03.532Z,100267.97
2023-03-22T04:51:32.038Z,100263.66
2023-03-22T04:53:59.050Z,100282.28
2023-03-22T04:56:26.122Z,100281.13
2023-03-22T04:58:53.249Z,100286.50
2023-03-22T05:01:19.891Z,100289.72
2023-03-22T05:03:47.603Z,100282.03
2023-03-22T05:06:15.263Z,100283.81
2023-03-22T05:08:42.601Z,100283.50
2023-03-22T05:11:14.924Z,100286.84
2023-03-22T05:13:41.491Z,100298.44
2023-03-22T05:16:09.548Z,100297.00
2023-03-22T05:18:38.062Z,100297.66
2023-03-22T05:21:06.826Z,100294.59
2023-03-22T05:23:33.458Z,100287.03
2023-03-22T05:26:01.716Z,100298.91
2023-03-22T05:28:28.678Z,100300.25
2023-03-22T05:30:57.090Z,100303.25
2023-03-22T05:33:23.964Z,100303.25
2023-03-22T05:35:51.303Z,100304.31
2023-03-22T05:38:18.324Z,100306.59
2023-03-22T05:40:45.230Z,100306.19
2023-03-22T05:43:12.114Z,100318.56
2023-03-22T05:45:38.836Z,100310.53
2023-03-22T05:48:05.758Z,100304.78
2023-03-22T05:50:33.265Z,100303.19
2023-03-22T05:53:00.149Z,100307.34
2023-03-22T05:55:27.189Z,100307.81
2023-03-22T05:57:54.809Z,100313.66
2023-03-22T06:00:21.842Z,100322.06
2023-03-22T06:02:49.865Z,100321.28
2023-03-22T06:05:17.561Z,100330.00
2023-03-22T06:07:44.778Z,100337.72
2023-03-22T06:10:13.414Z,100342.69
2023-03-22T06:12:40.476Z,100339.72
2023-03-22T06:15:08.311Z,100338.03
2023-03-22T06:17:34.994Z,100344.91
2023-03-22T06:20:01.590Z,100340.78
2023-03-22T06:22:30.607Z,100347.41
2023-03-22T06:24:57.210Z,100350.16
2023-03-22T06:27:23.765Z,100339.53
2023-03-22T06:29:54.637Z,100345.22
2023-03-22T06:32:26.637Z,100340.28
2023-03-22T06:34:56.614Z,100336.91
2023-03-22T06:37:23.589Z,100344.50
2023-03-22T06:39:51.807Z,100344.69
2023-03-22T06:42:18.853Z,100349.53
2023-03-22T06:44:45.474Z,100332.69
2023-03-22T06:47:12.772Z,100345.16
2023-03-22T06:49:40.057Z,100350.84
2023-03-22T06:52:07.253Z,100352.56
2023-03-22T06:54:34.222Z,100341.53
2023-03-22T06:57:00.824Z,100347.47
2023-03-22T06:59:27.748Z,100347.12
2023-03-22T07:01:54.320Z,100356.03
2023-03-22T07:04:21.181Z,100350.81
2023-03-22T07:06:48.033Z,100348.78
2023-03-22T07:09:14.612Z,100353.50
2023-03-22T07:11:41.253Z,100352.13
2023-03-22T07:14:07.920Z,100346.53
2023-03-22T07:16:34.519Z,100357.94
2023-03-22T07:19:01.447Z,100360.22
2023-03-22T07:21:28.278Z,100354.38
2023-03-22T07:23:55.487Z,100360.47
2023-03-22T07:26:22.117Z,100352.59
2023-03-22T07:28:48.693Z,100363.22
2023-03-22T07:31:15.674Z,100364.31
2023-03-22T07:33:42.360Z,100359.94
2023-03-22T07:36:10.342Z,100348.19
2023-03-22T07:38:37.380Z,100360.81
2023-03-22T07:41:04.426Z,100354.22
2023-03-22T07:43:31.009Z,100356.97
2023-03-22T07:45:57.798Z,100373.78
2023-03-22T07:48:24.599Z,100376.00
2023-03-22T07:50:55.394Z,100365.16
2023-03-22T07:53:22.049Z,100364.69
2023-03-22T07:55:48.750Z,100371.16
2023-03-22T07:58:15.399Z,100366.84
2023-03-22T08:00:42.031Z,100367.44
2023-03-22T08:03:12.301Z,100363.53
2023-03-22T08:05:43.099Z,100361.03
2023-03-22T08:08:10.693Z,100356.88
2023-03-22T08:10:38.404Z,100358.75
2023-03-22T08:13:05.205Z,100363.63
2023-03-22T08:15:31.868Z,100368.03
2023-03-22T08:17:58.657Z,100362.84
2023-03-22T08:20:28.500Z,100367.47
2023-03-22T08:22:55.379Z,100362.66
2023-03-22T08:25:22.280Z,100368.50
2023-03-22T08:27:48.935Z,100354.94
2023-03-22T08:30:16.070Z,100351.28
2023-03-22T08:32:42.743Z,100349.78
2023-03-22T08:35:10.056Z,100359.78
2023-03-22T08:37:36.645Z,100352.41
2023-03-22T08:40:06.622Z,100352.13
2023-03-22T08:42:33.264Z,100355.47
2023-03-22T08:44:59.823Z,100356.50
2023-03-22T08:47:26.461Z,100354.53
2023-03-22T08:49:53.066Z,100357.84
2023-03-22T08:52:19.719Z,100353.44
2023-03-22T08:54:46.651Z,100360.00
2023-03-22T08:57:14.367Z,100362.09
2023-03-22T08:59:40.978Z,100376.97
2023-03-22T09:02:08.572Z,100374.88
2023-03-22T09:04:35.384Z,100381.03
2023-03-22T09:07:02.042Z,100374.94
2023-03-22T09:09:28.652Z,100376.00
2023-03-22T09:11:55.327Z,100374.38
2023-03-22T09:14:21.956Z,100376.50
2023-03-22T09:16:48.530Z,100374.94
2023-03-22T09:19:15.501Z,100373.47
2023-03-22T09:21:42.778Z,100371.63
2023-03-22T09:24:09.504Z,100368.09
2023-03-22T09:26:37.015Z,100364.59
2023-03-22T09:29:03.756Z,100365.38
2023-03-22T09:31:30.425Z,100360.81
2023-03-22T09:33:58.779Z,100368.59
2023-03-22T09:36:25.611Z,100368.50
2023-03-22T09:38:52.310Z,100361.94
2023-03-22T09:41:25.370Z,100362.94
2023-03-22T09:43:57.086Z,100360.31
2023-03-22T09:46:34.383Z,100354.09
2023-03-22T09:49:06.125Z,100359.06
2023-03-22T09:51:42.029Z,100356.13
2023-03-22T09:54:19.582Z,100348.31
2023-03-22T09:56:53.448Z,100354.81
2023-03-22T09:59:32.850Z,100345.19
2023-03-22T10:02:03.010Z,100344.09
2023-03-22T10:04:44.851Z,100350.03
2023-03-22T10:07:35.909Z,100343.91
2023-03-22T10:10:18.890Z,100352.16
2023-03-22T10:13:05.390Z,100347.31
2023-03-22T10:15:38.972Z,100342.34
2023-03-22T10:18:11.684Z,100346.22
2023-03-22T10:20:51.248Z,100336.31
2023-03-22T10:23:24.561Z,100338.16
2023-03-22T10:25:53.021Z,100339.06
2023-03-22T10:28:28.884Z,100340.00
2023-03-22T10:30:57.194Z,100337.22
2023-03-22T10:33:40.323Z,100335.41
2023-03-22T10:36:13.853Z,100335.34
2023-03-22T10:38:50.706Z,100337.56
2023-03-22T10:41:20.940Z,100335.19
2023-03-22T10:43:52.234Z,100343.94
2023-03-22T10:46:23.255Z,100340.22
2023-03-22T10:48:52.513Z,100340.22
2023-03-22T10:51:29.693Z,100335.44
2023-03-22T10:53:58.236Z,100333.06
2023-03-22T10:56:25.496Z,100335.47
2023-03-22T10:58:52.801Z,100339.44
2023-03-22T11:01:29.195Z,100329.31
2023-03-22T11:04:16.559Z,100321.19
2023-03-22T11:06:53.342Z,100317.34
2023-03-22T11:09:23.643Z,100312.31
2023-03-22T11:11:59.098Z,100318.94
2023-03-22T11:14:35.661Z,100313.47
2023-03-22T11:17:10.122Z,100317.25
2023-03-22T11:19:39.931Z,100308.03
2023-03-22T11:22:25.182Z,100307.22
2023-03-22T11:24:52.629Z,100303.75
2023-03-22T11:27:33.000Z,100301.66
2023-03-22T11:30:21.017Z,100296.69
2023-03-22T11:32:47.851Z,100287.59
2023-03-22T11:35:17.767Z,100291.31
2023-03-22T11:37:50.409Z,100298.22
2023-03-22T11:40:20.733Z,100289.97
2023-03-22T11:42:52.181Z,100294.69
2023-03-22T11:45:32.396Z,100293.19
2023-03-22T11:48:06.233Z,100284.72
2023-03-22T11:50:37.293Z,100285.41
2023-03-22T11:53:07.331Z,100284.87
2023-03-22T11:55:35.908Z,100281.72
2023-03-22T11:58:04.393Z,100277.00
2023-03-22T12:00:37.634Z,100282.13
2023-03-22T12:03:16.319Z,100275.97
2023-03-22T12:05:47.576Z,100280.47
2023-03-22T12:08:35.641Z,100272.81
2023-03-22T12:11:06.989Z,100274.72
2023-03-22T12:13:51.530Z,100280.13
2023-03-22T12:16:25.111Z,100272.41
2023-03-22T12:19:14.343Z,100283.63
2023-03-22T12:21:41.459Z,100273.53
2023-03-22T12:24:28.941Z,100282.38
2023-03-22T12:27:00.146Z,100288.06
2023-03-22T12:29:28.269Z,100285.91
2023-03-22T12:32:12.229Z,100288.06
2023-03-22T12:34:43.616Z,100288.72
2023-03-22T12:37:18.045Z,100284.81
2023-03-22T12:39:59.971Z,100279.31
2023-03-22T12:42:40.586Z,100277.44
2023-03-22T12:45:21.002Z,100281.19
2023-03-22T12:47:53.878Z,100284.97
2023-03-22T12:50:24.465Z,100278.47
2023-03-22T12:52:57.057Z,100278.81
2023-03-22T12:55:31.317Z,100283.47
2023-03-22T12:57:58.585Z,100274.69
2023-03-22T13:00:35.490Z,100260.50
2023-03-22T13:03:20.207Z,100260.81
2023-03-22T13:06:00.827Z,100258.19
2023-03-22T13:09:06.104Z,100253.41
2023-03-22T13:11:32.765Z,100254.22
2023-03-22T13:13:59.320Z,100257.66
2023-03-22T13:16:51.923Z,100258.78
2023-03-22T13:19:29.599Z,100252.81
2023-03-22T13:22:17.894Z,100241.25
2023-03-22T13:24:58.969Z,100239.69
2023-03-22T13:27:56.873Z,100234.69
2023-03-22T13:30:55.294Z,100236.81
2023-03-22T13:33:29.415Z,100232.00
2023-03-22T13:35:59.497Z,100231.41
2023-03-22T13:38:48.908Z,100222.75
2023-03-22T13:41:28.090Z,100229.28
2023-03-22T13:44:00.486Z,100231.31
2023-03-22T13:46:43.712Z,100231.53
2023-03-22T13:49:44.694Z,100234.78
2023-03-22T13:52:43.874Z,100233.41
2023-03-22T13:55:37.213Z,100221.31
2023-03-22T13:58:05.988Z,100212.38
2023-03-22T14:00:32.510Z,100212.06
2023-03-22T14:03:02.411Z,100206.66
2023-03-22T14:05:32.222Z,100207.75
2023-03-22T14:08:00.261Z,100202.91
2023-03-22T14:10:36.796Z,100208.97
2023-03-22T14:13:19.257Z,100201.12
2023-03-22T14:15:50.917Z,100195.84
2023-03-22T14:18:26.717Z,100207.50
2023-03-22T14:20:59.105Z,100195.06
